Time;durP1;ratioP1;P1;durP2;ratioP2;P2;SDS_P1;SDS_P2;PMS_P1;PMS_P2;Temp;Humidity;BMP_temperature;BMP_pressure;BME280_temperature;BME280_humidity;BME280_pressure;Samples;Min_cycle;Max_cycle;Signal;HPM_P1;HPM_P2
2022/08/27 00:00:43;;;;;;;5.78;3.50;;;25.50;99.90;;;;;;1907427;74;21592;-83
2022/08/27 00:03:14;;;;;;;5.50;3.72;;;25.50;99.90;;;;;;1902441;75;21553;-82
2022/08/27 00:05:45;;;;;;;7.75;3.25;;;25.60;99.90;;;;;;1906488;74;21657;-82
2022/08/27 00:08:17;;;;;;;8.10;3.62;;;25.60;99.90;;;;;;1908599;75;21628;-82
2022/08/27 00:10:48;;;;;;;7.15;3.52;;;25.60;99.90;;;;;;1924176;74;21214;-82
2022/08/27 00:13:19;;;;;;;4.15;3.10;;;25.60;99.90;;;;;;1916662;74;21099;-82
2022/08/27 00:15:50;;;;;;;7.62;3.50;;;25.60;99.90;;;;;;1921833;74;21665;-82
2022/08/27 00:18:21;;;;;;;6.10;3.35;;;25.60;99.90;;;;;;1912153;74;21172;-82
2022/08/27 00:20:52;;;;;;;4.85;3.12;;;25.70;99.90;;;;;;1911062;74;21142;-82
2022/08/27 00:23:23;;;;;;;7.78;3.35;;;25.70;99.90;;;;;;1909032;74;21156;-82
2022/08/27 00:25:55;;;;;;;5.92;3.33;;;25.70;99.90;;;;;;1905145;74;21129;-82
2022/08/27 00:28:28;;;;;;;9.08;3.58;;;25.80;99.90;;;;;;1918597;74;21105;-82
2022/08/27 00:30:59;;;;;;;5.65;3.40;;;25.80;99.90;;;;;;1904067;74;21153;-83
2022/08/27 00:33:31;;;;;;;6.15;3.45;;;25.80;99.90;;;;;;1912036;74;21186;-84
2022/08/27 00:36:03;;;;;;;4.08;2.65;;;25.80;99.90;;;;;;1897684;73;21230;-82
2022/08/27 00:38:34;;;;;;;6.80;3.40;;;25.80;99.90;;;;;;1908806;73;21033;-82
2022/08/27 00:41:07;;;;;;;4.67;3.52;;;25.90;99.90;;;;;;1909468;74;21108;-82
2022/08/27 00:43:42;;;;;;;7.97;3.27;;;25.90;99.90;;;;;;1909566;75;21265;-83
2022/08/27 00:46:15;;;;;;;7.12;3.55;;;25.90;99.90;;;;;;1906614;75;21094;-82
2022/08/27 00:48:47;;;;;;;9.55;3.87;;;26.00;99.90;;;;;;1893664;75;21153;-83
2022/08/27 00:51:20;;;;;;;6.53;3.80;;;26.00;99.90;;;;;;1916084;73;21126;-82
2022/08/27 00:53:53;;;;;;;7.83;3.52;;;26.00;99.90;;;;;;1900734;75;21599;-82
2022/08/27 00:56:26;;;;;;;6.83;3.33;;;26.10;99.90;;;;;;1900368;75;21132;-81
2022/08/27 00:58:57;;;;;;;5.72;3.25;;;26.10;99.90;;;;;;1906117;74;21663;-83
2022/08/27 01:01:31;;;;;;;7.50;3.52;;;26.10;99.90;;;;;;1900323;74;21116;-82
2022/08/27 01:04:05;;;;;;;5.22;3.40;;;26.10;99.90;;;;;;1898873;73;21148;-82
2022/08/27 01:06:37;;;;;;;10.72;3.77;;;26.20;99.90;;;;;;1904646;75;21168;-82
2022/08/27 01:09:10;;;;;;;4.45;3.02;;;26.20;99.90;;;;;;1906522;74;21094;-82
2022/08/27 01:11:43;;;;;;;6.20;4.10;;;26.20;99.90;;;;;;1908333;73;21148;-82
2022/08/27 01:14:17;;;;;;;7.00;3.98;;;26.30;99.90;;;;;;1905427;74;21263;-83
2022/08/27 01:16:50;;;;;;;5.42;3.60;;;26.30;99.90;;;;;;1872955;75;21730;-83
2022/08/27 01:19:24;;;;;;;8.00;3.72;;;26.40;99.90;;;;;;1898535;75;21604;-82
2022/08/27 01:21:57;;;;;;;6.40;3.30;;;26.50;99.90;;;;;;1904192;74;21713;-82
2022/08/27 01:24:31;;;;;;;5.17;3.65;;;26.50;99.90;;;;;;1877149;75;21207;-82
2022/08/27 01:27:05;;;;;;;4.10;3.05;;;26.50;99.90;;;;;;1910439;74;21222;-82
2022/08/27 01:29:38;;;;;;;7.25;2.95;;;26.60;99.90;;;;;;1918879;74;21197;-82
2022/08/27 01:32:13;;;;;;;6.28;3.15;;;26.60;99.90;;;;;;1919670;72;21233;-82
2022/08/27 01:34:45;;;;;;;5.83;2.90;;;26.70;99.90;;;;;;1913221;73;21188;-82
2022/08/27 01:37:16;;;;;;;4.78;3.30;;;26.80;99.90;;;;;;1898732;74;21225;-82
2022/08/27 01:39:49;;;;;;;6.45;4.20;;;26.80;99.90;;;;;;1896650;74;21155;-82
2022/08/27 01:42:22;;;;;;;5.42;3.10;;;26.90;99.90;;;;;;1910403;74;21194;-83
2022/08/27 01:44:54;;;;;;;3.58;2.25;;;27.00;99.90;;;;;;1912372;74;21596;-72
2022/08/27 01:47:28;;;;;;;7.17;2.65;;;27.10;99.90;;;;;;1913345;73;21113;-74
2022/08/27 01:50:00;;;;;;;6.03;2.80;;;27.20;99.90;;;;;;1908902;73;21172;-73
2022/08/27 01:52:32;;;;;;;5.65;3.33;;;27.30;99.90;;;;;;1907564;74;21679;-73
2022/08/27 01:55:03;;;;;;;6.42;2.40;;;27.40;99.90;;;;;;1902491;74;21081;-73
2022/08/27 01:57:34;;;;;;;5.60;2.87;;;27.40;99.90;;;;;;1908106;74;21077;-73
2022/08/27 02:00:08;;;;;;;5.08;2.30;;;27.50;99.90;;;;;;1913958;74;21222;-72
2022/08/27 02:02:41;;;;;;;5.90;2.92;;;27.60;99.90;;;;;;1909287;73;21664;-74
2022/08/27 02:05:13;;;;;;;6.17;2.80;;;27.70;99.90;;;;;;1924810;73;21129;-73
2022/08/27 02:07:44;;;;;;;4.42;2.35;;;27.80;99.90;;;;;;1901072;73;21183;-73
2022/08/27 02:10:18;;;;;;;4.42;2.50;;;27.90;99.90;;;;;;1912873;73;21902;-73
2022/08/27 02:12:51;;;;;;;4.78;2.83;;;28.00;99.90;;;;;;1907540;74;21717;-73
2022/08/27 02:15:23;;;;;;;4.78;2.42;;;28.10;99.90;;;;;;1910629;73;21116;-73
2022/08/27 02:17:54;;;;;;;5.90;2.67;;;28.10;99.90;;;;;;1910916;73;21156;-72
2022/08/27 02:20:25;;;;;;;5.55;3.27;;;28.20;99.90;;;;;;1917111;73;21127;-73
2022/08/27 02:22:58;;;;;;;4.55;2.87;;;28.20;99.90;;;;;;1889241;75;21094;-73
2022/08/27 02:25:29;;;;;;;6.33;3.00;;;28.20;99.90;;;;;;1876882;75;21603;-73
2022/08/27 02:28:00;;;;;;;6.35;2.75;;;28.20;99.90;;;;;;1867106;76;21222;-72
2022/08/27 02:30:33;;;;;;;4.12;2.52;;;28.40;99.90;;;;;;1874087;75;21198;-73
2022/08/27 02:33:05;;;;;;;4.50;2.80;;;28.40;99.90;;;;;;1877419;75;21083;-72
2022/08/27 02:35:39;;;;;;;6.08;2.98;;;28.40;99.90;;;;;;1878367;75;21151;-73
2022/08/27 02:38:11;;;;;;;7.37;3.20;;;28.30;99.90;;;;;;1878240;75;21115;-73
2022/08/27 02:40:42;;;;;;;5.22;3.00;;;28.40;99.90;;;;;;1883260;75;21208;-73
2022/08/27 02:43:13;;;;;;;5.70;3.17;;;28.50;99.90;;;;;;1919312;73;21751;-73
2022/08/27 02:45:45;;;;;;;4.12;2.80;;;28.60;99.90;;;;;;1917023;73;21693;-73
2022/08/27 02:48:16;;;;;;;6.28;2.75;;;28.70;99.90;;;;;;1885827;74;21701;-72
2022/08/27 02:50:47;;;;;;;5.83;2.80;;;28.90;99.90;;;;;;1875412;75;21521;-72
2022/08/27 02:53:18;;;;;;;5.65;2.92;;;29.00;99.90;;;;;;1889458;75;21392;-72
2022/08/27 02:55:51;;;;;;;5.28;2.80;;;29.20;99.90;;;;;;1877460;75;21617;-73
2022/08/27 02:58:22;;;;;;;5.50;2.37;;;29.30;99.90;;;;;;1891526;75;21603;-71
2022/08/27 03:00:53;;;;;;;5.12;3.10;;;29.40;99.90;;;;;;1880890;75;21143;-72
2022/08/27 03:03:24;;;;;;;6.70;3.30;;;29.40;99.90;;;;;;1851887;76;21159;-71
2022/08/27 03:05:56;;;;;;;5.08;3.27;;;29.40;99.90;;;;;;1806647;78;21153;-72
2022/08/27 03:08:28;;;;;;;5.53;2.98;;;29.40;99.90;;;;;;1779774;78;21257;-72
2022/08/27 03:11:00;;;;;;;6.17;3.10;;;29.40;99.90;;;;;;1866081;75;21194;-71
2022/08/27 03:13:31;;;;;;;4.83;3.02;;;29.30;99.90;;;;;;1864300;75;21155;-72
2022/08/27 03:16:02;;;;;;;5.95;3.20;;;29.30;99.90;;;;;;1844909;77;21134;-71
2022/08/27 03:18:34;;;;;;;4.50;3.00;;;29.30;99.90;;;;;;1799467;79;21149;-73
2022/08/27 03:21:07;;;;;;;5.37;3.00;;;29.20;99.90;;;;;;1836666;77;21134;-73
2022/08/27 03:23:37;;;;;;;6.47;3.17;;;29.20;99.90;;;;;;1817495;77;21188;-73
2022/08/27 03:26:10;;;;;;;4.67;2.90;;;29.20;99.90;;;;;;1824962;78;21145;-72
2022/08/27 03:28:41;;;;;;;4.83;2.80;;;29.30;99.90;;;;;;1778065;79;21522;-72
2022/08/27 03:31:15;;;;;;;6.67;3.20;;;29.40;99.90;;;;;;1864716;75;21179;-71
2022/08/27 03:33:46;;;;;;;8.50;3.70;;;29.50;99.90;;;;;;1808565;78;21643;-72
2022/08/27 03:36:17;;;;;;;4.78;2.95;;;29.50;99.90;;;;;;1782954;79;21583;-72
2022/08/27 03:38:48;;;;;;;4.83;2.83;;;29.50;99.60;;;;;;1816747;78;21577;-71
2022/08/27 03:41:21;;;;;;;6.53;3.22;;;29.50;99.60;;;;;;1864251;76;21080;-72
2022/08/27 03:43:53;;;;;;;4.40;2.65;;;29.50;99.80;;;;;;1807871;78;21485;-73
2022/08/27 03:46:28;;;;;;;6.28;2.83;;;29.40;99.80;;;;;;1791545;79;21158;-71
2022/08/27 03:48:56;;;;;;;6.47;3.00;;;29.30;99.90;;;;;;1805302;78;21151;-72
2022/08/27 03:51:27;;;;;;;5.65;2.20;;;29.30;99.90;;;;;;1829866;76;21120;-74
2022/08/27 03:53:58;;;;;;;4.22;2.50;;;29.40;99.90;;;;;;1871084;75;21053;-72
2022/08/27 03:56:37;;;;;;;8.35;3.00;;;29.50;99.90;;;;;;1815246;78;21145;-72
2022/08/27 03:59:03;;;;;;;2.72;2.12;;;29.50;99.90;;;;;;1865462;75;21618;-72
2022/08/27 04:01:34;;;;;;;4.45;2.40;;;29.50;99.70;;;;;;1815988;78;21234;-71
2022/08/27 04:04:06;;;;;;;4.37;2.50;;;29.60;99.30;;;;;;1810680;78;21276;-72
2022/08/27 04:06:37;;;;;;;4.72;2.25;;;29.80;98.80;;;;;;1835675;77;21098;-72
2022/08/27 04:09:08;;;;;;;6.85;2.27;;;29.90;99.10;;;;;;1884950;75;21331;-72
2022/08/27 04:11:58;;;;;;;3.77;2.22;;;30.10;98.30;;;;;;1833697;76;21268;-72
2022/08/27 04:14:29;;;;;;;4.90;2.08;;;30.20;98.40;;;;;;1917550;73;21072;-72
2022/08/27 04:16:59;;;;;;;3.20;1.70;;;30.40;97.80;;;;;;1925128;72;21134;-72
2022/08/27 04:19:32;;;;;;;4.20;1.82;;;30.50;97.30;;;;;;1885056;74;21645;-73
2022/08/27 04:22:06;;;;;;;3.85;2.15;;;30.60;96.90;;;;;;1871892;75;21116;-72
2022/08/27 04:24:38;;;;;;;4.25;2.50;;;30.60;97.20;;;;;;1880905;75;21071;-72
2022/08/27 04:27:10;;;;;;;4.35;2.67;;;30.50;97.50;;;;;;1823879;77;21662;-72
2022/08/27 04:29:41;;;;;;;4.22;2.12;;;30.50;97.70;;;;;;1886551;75;21162;-72
2022/08/27 04:32:13;;;;;;;4.40;1.90;;;30.50;97.50;;;;;;1901842;75;21217;-72
2022/08/27 04:34:43;;;;;;;3.70;1.95;;;30.60;96.60;;;;;;1899028;75;21451;-72
2022/08/27 04:37:14;;;;;;;4.92;2.22;;;30.60;96.30;;;;;;1912485;75;21131;-72
2022/08/27 04:39:48;;;;;;;3.35;1.80;;;30.60;97.20;;;;;;1882164;75;21154;-73
2022/08/27 04:42:20;;;;;;;4.95;2.10;;;30.80;96.70;;;;;;1900410;75;21736;-74
2022/08/27 04:44:52;;;;;;;4.17;2.12;;;30.90;95.90;;;;;;1879046;75;21567;-73
2022/08/27 04:47:23;;;;;;;4.37;1.87;;;31.00;96.30;;;;;;1906601;75;21239;-73
2022/08/27 04:49:54;;;;;;;3.35;1.95;;;31.10;96.20;;;;;;1906468;75;21235;-73
2022/08/27 04:52:25;;;;;;;3.67;2.00;;;31.10;95.40;;;;;;1902939;75;21143;-73
2022/08/27 04:54:57;;;;;;;4.25;2.17;;;31.10;95.50;;;;;;1881142;75;21755;-73
2022/08/27 04:57:33;;;;;;;3.85;1.90;;;31.10;95.50;;;;;;1905667;75;21676;-71
2022/08/27 05:00:23;;;;;;;4.03;1.52;;;31.10;94.50;;;;;;1908700;75;21107;-73
2022/08/27 05:02:54;;;;;;;4.10;1.80;;;31.00;94.30;;;;;;1888536;74;21626;-72
2022/08/27 05:05:26;;;;;;;2.83;1.45;;;30.90;94.70;;;;;;1896120;75;21181;-73
2022/08/27 05:07:57;;;;;;;3.55;1.50;;;31.00;95.50;;;;;;1878299;76;21162;-73
2022/08/27 05:10:28;;;;;;;3.27;1.45;;;31.00;93.90;;;;;;1879848;76;21104;-73
2022/08/27 05:12:59;;;;;;;3.25;1.65;;;31.10;94.10;;;;;;1862712;76;21547;-73
2022/08/27 05:15:30;;;;;;;2.65;1.35;;;31.10;94.50;;;;;;1859539;76;21135;-73
2022/08/27 05:18:01;;;;;;;2.67;1.47;;;31.20;93.60;;;;;;1864071;76;21084;-73
2022/08/27 05:20:33;;;;;;;2.95;1.62;;;31.30;92.50;;;;;;1867405;76;21614;-73
2022/08/27 05:23:04;;;;;;;6.45;1.50;;;31.30;92.90;;;;;;1876191;76;21567;-73
2022/08/27 05:25:37;;;;;;;3.65;1.37;;;31.30;92.70;;;;;;1881898;76;21539;-74
2022/08/27 05:28:08;;;;;;;4.40;1.30;;;31.20;92.00;;;;;;1868496;74;21115;-73
2022/08/27 05:30:43;;;;;;;2.98;0.95;;;31.10;92.40;;;;;;1888459;76;21137;-73
2022/08/27 05:33:17;;;;;;;2.37;0.60;;;31.10;91.20;;;;;;1874543;74;21154;-73
2022/08/27 05:35:51;;;;;;;2.60;0.98;;;31.10;90.50;;;;;;1841841;76;21555;-73
2022/08/27 05:38:25;;;;;;;1.92;0.90;;;31.10;91.60;;;;;;1886856;74;21079;-73
2022/08/27 05:40:57;;;;;;;2.15;1.12;;;31.10;91.40;;;;;;1879359;74;21205;-72
2022/08/27 05:43:28;;;;;;;1.80;1.15;;;31.10;91.90;;;;;;1926472;72;21169;-73
2022/08/27 05:45:59;;;;;;;2.00;0.80;;;31.10;92.00;;;;;;1947266;72;21148;-72
2022/08/27 05:48:30;;;;;;;3.45;1.12;;;31.00;91.80;;;;;;1845852;76;21587;-72
2022/08/27 05:51:04;;;;;;;3.35;1.40;;;31.00;92.20;;;;;;1933160;73;21532;-73
2022/08/27 05:53:35;;;;;;;4.72;1.50;;;31.00;91.60;;;;;;1934955;73;21151;-72
2022/08/27 05:56:08;;;;;;;2.52;1.30;;;31.00;91.30;;;;;;1925081;73;21171;-73
2022/08/27 06:01:12;;;;;;;3.25;1.35;;;31.10;92.60;;;;;;1936560;73;21158;-73
2022/08/27 06:03:45;;;;;;;2.98;1.27;;;31.10;92.60;;;;;;1945632;72;21135;-73
2022/08/27 06:06:16;;;;;;;2.75;1.57;;;31.20;92.90;;;;;;1937079;73;21045;-72
2022/08/27 06:08:47;;;;;;;3.08;1.32;;;31.30;92.30;;;;;;1932783;73;21201;-73
2022/08/27 06:11:18;;;;;;;5.62;1.90;;;31.30;92.70;;;;;;1950074;72;21582;-73
2022/08/27 06:13:50;;;;;;;4.25;1.60;;;31.40;92.30;;;;;;1942038;73;21619;-73
2022/08/27 06:16:21;;;;;;;2.95;1.45;;;31.40;91.90;;;;;;1934041;73;21572;-73
2022/08/27 06:18:52;;;;;;;2.60;1.27;;;31.50;91.80;;;;;;1940277;73;21058;-72
2022/08/27 06:21:22;;;;;;;3.62;1.35;;;31.60;92.40;;;;;;1856529;75;21137;-73
2022/08/27 06:23:54;;;;;;;2.85;1.37;;;31.70;91.30;;;;;;1876853;75;21174;-73
2022/08/27 06:26:52;;;;;;;2.87;1.60;;;31.80;90.60;;;;;;1871613;74;21137;-74
2022/08/27 06:29:44;;;;;;;3.12;1.50;;;31.80;91.30;;;;;;1857575;76;22199;-73
2022/08/27 06:32:41;;;;;;;2.15;1.35;;;31.90;91.20;;;;;;1876438;76;21119;-73
2022/08/27 06:35:30;;;;;;;2.92;1.47;;;31.90;90.90;;;;;;1823746;77;21161;-72
2022/08/27 06:38:02;;;;;;;4.45;1.90;;;32.00;90.90;;;;;;1823292;77;21116;-73
2022/08/27 06:40:34;;;;;;;3.85;1.57;;;32.00;90.70;;;;;;1827802;77;21099;-73
2022/08/27 06:43:05;;;;;;;3.00;1.72;;;32.00;90.70;;;;;;1808748;77;21171;-73
2022/08/27 06:45:38;;;;;;;7.70;2.35;;;32.00;90.40;;;;;;1841774;76;21078;-72
2022/08/27 06:48:08;;;;;;;3.83;1.57;;;31.90;90.70;;;;;;1832543;76;21720;-72
2022/08/27 06:50:42;;;;;;;3.17;1.27;;;31.90;90.60;;;;;;1845383;76;21590;-73
2022/08/27 06:53:13;;;;;;;3.80;1.77;;;31.90;90.40;;;;;;1870414;75;21151;-74
2022/08/27 06:55:47;;;;;;;2.20;1.60;;;31.90;90.20;;;;;;1871312;75;22094;-74
2022/08/27 06:58:21;;;;;;;1.90;1.17;;;32.00;89.30;;;;;;1868659;75;21604;-73
2022/08/27 07:00:52;;;;;;;2.20;1.22;;;32.10;89.60;;;;;;1884715;75;21230;-74
2022/08/27 07:03:23;;;;;;;2.75;1.40;;;32.10;86.70;;;;;;1837518;77;21116;-72
2022/08/27 07:05:54;;;;;;;2.40;0.82;;;32.10;87.60;;;;;;1850334;75;21146;-72
2022/08/27 07:08:24;;;;;;;1.75;0.80;;;32.10;85.30;;;;;;1927377;74;21613;-73
2022/08/27 07:10:57;;;;;;;2.08;0.90;;;32.10;83.00;;;;;;1926824;74;21592;-73
2022/08/27 07:13:29;;;;;;;2.08;0.80;;;32.00;84.30;;;;;;1923584;74;21172;-73
2022/08/27 07:16:01;;;;;;;2.00;1.07;;;31.90;85.80;;;;;;1933891;74;21591;-72
2022/08/27 07:18:32;;;;;;;2.75;1.15;;;31.80;87.00;;;;;;1921013;73;21659;-72
2022/08/27 07:21:04;;;;;;;4.03;1.05;;;31.80;87.60;;;;;;1930787;74;21226;-73
2022/08/27 07:23:37;;;;;;;2.62;1.07;;;31.80;88.60;;;;;;1918402;73;21608;-73
2022/08/27 07:26:10;;;;;;;2.15;0.93;;;31.80;86.60;;;;;;1942212;74;21179;-74
2022/08/27 07:28:43;;;;;;;1.57;0.90;;;31.80;85.80;;;;;;1926183;74;21136;-73
2022/08/27 07:31:16;;;;;;;2.02;0.85;;;31.80;87.10;;;;;;1932987;74;21713;-73
2022/08/27 07:33:48;;;;;;;2.25;1.12;;;31.80;87.20;;;;;;1926295;74;21119;-73
2022/08/27 07:36:21;;;;;;;2.33;0.90;;;31.70;88.20;;;;;;1910713;73;21204;-73
2022/08/27 07:38:53;;;;;;;2.37;0.80;;;31.80;87.20;;;;;;1936074;74;21593;-72
2022/08/27 07:41:25;;;;;;;1.50;0.80;;;31.80;85.70;;;;;;1917979;72;21247;-72
2022/08/27 07:46:33;;;;;;;2.05;0.68;;;31.80;82.30;;;;;;1911740;74;21655;-73
2022/08/27 07:49:05;;;;;;;1.37;0.60;;;31.80;83.20;;;;;;1935434;73;21190;-72
2022/08/27 07:51:36;;;;;;;4.12;1.15;;;31.80;80.40;;;;;;1936616;73;21117;-73
2022/08/27 07:54:07;;;;;;;3.12;1.25;;;31.80;85.00;;;;;;1942580;73;21548;-72
2022/08/27 07:56:38;;;;;;;3.08;1.70;;;31.80;85.40;;;;;;1925913;74;21169;-74
2022/08/27 07:59:10;;;;;;;3.27;1.05;;;31.80;86.30;;;;;;1941473;72;21122;-73
2022/08/27 08:01:41;;;;;;;2.90;0.95;;;31.80;85.70;;;;;;1920244;73;21634;-73
2022/08/27 08:04:12;;;;;;;2.83;1.00;;;31.80;82.50;;;;;;1917908;74;21687;-72
2022/08/27 08:06:44;;;;;;;1.17;0.70;;;31.80;83.60;;;;;;1930026;73;21603;-72
2022/08/27 08:09:16;;;;;;;2.17;0.90;;;31.80;84.40;;;;;;1939286;73;21753;-73
2022/08/27 08:11:47;;;;;;;1.57;0.70;;;31.70;83.60;;;;;;1934381;73;21112;-72
2022/08/27 08:14:19;;;;;;;2.67;0.80;;;31.70;82.60;;;;;;1934194;72;21152;-71
2022/08/27 08:16:50;;;;;;;1.80;0.75;;;31.70;82.80;;;;;;1943848;72;21151;-73
2022/08/27 08:19:21;;;;;;;1.85;0.85;;;31.70;83.00;;;;;;1935375;73;21135;-72
2022/08/27 08:21:52;;;;;;;2.33;0.98;;;31.80;83.20;;;;;;1939608;73;21148;-71
2022/08/27 08:24:24;;;;;;;3.70;1.00;;;31.80;80.30;;;;;;1872623;76;21124;-71
2022/08/27 08:26:55;;;;;;;4.92;1.15;;;31.90;83.00;;;;;;1940145;73;21599;-72
2022/08/27 08:29:26;;;;;;;2.00;1.10;;;32.00;84.70;;;;;;1933901;73;21537;-72
2022/08/27 08:31:57;;;;;;;2.55;1.40;;;32.00;83.50;;;;;;1938817;73;21096;-72
2022/08/27 08:34:28;;;;;;;3.45;1.02;;;32.00;84.20;;;;;;1938421;73;21572;-70
2022/08/27 08:36:59;;;;;;;2.15;1.45;;;32.00;83.70;;;;;;1933680;73;21545;-72
2022/08/27 08:39:29;;;;;;;1.60;0.70;;;32.00;82.50;;;;;;1932627;73;21564;-71
2022/08/27 08:42:03;;;;;;;1.77;1.05;;;32.10;81.80;;;;;;1935929;72;21442;-70
2022/08/27 08:44:36;;;;;;;2.83;1.50;;;32.00;82.90;;;;;;1930898;73;21121;-72
2022/08/27 08:47:10;;;;;;;3.87;1.50;;;32.00;84.20;;;;;;1933283;73;21128;-72
2022/08/27 08:49:43;;;;;;;4.35;1.32;;;31.90;84.10;;;;;;1943791;73;21093;-71
2022/08/27 08:52:18;;;;;;;5.03;1.70;;;31.90;85.30;;;;;;1936048;73;21079;-71
2022/08/27 08:54:51;;;;;;;3.37;1.47;;;32.00;87.00;;;;;;1946804;73;21087;-73
2022/08/27 08:57:25;;;;;;;3.95;2.05;;;32.00;86.60;;;;;;1949344;73;21606;-72
2022/08/27 08:59:59;;;;;;;4.00;1.85;;;31.90;86.50;;;;;;1950954;73;21595;-72
2022/08/27 09:02:29;;;;;;;2.50;1.22;;;31.80;86.90;;;;;;1954126;73;21094;-72
2022/08/27 09:05:04;;;;;;;2.70;1.30;;;31.80;85.40;;;;;;1952765;73;21622;-72
2022/08/27 09:07:37;;;;;;;4.17;1.65;;;31.80;85.10;;;;;;1961706;73;21068;-74
2022/08/27 09:10:11;;;;;;;3.25;1.40;;;31.70;85.50;;;;;;1953108;73;21210;-74
2022/08/27 09:12:42;;;;;;;3.22;1.60;;;31.70;85.80;;;;;;1948800;73;21137;-73
2022/08/27 09:15:16;;;;;;;2.02;1.37;;;31.70;85.40;;;;;;1938435;73;21145;-73
2022/08/27 09:17:49;;;;;;;2.25;1.32;;;31.70;85.70;;;;;;1940120;73;21104;-74
2022/08/27 09:20:22;;;;;;;3.05;1.37;;;31.70;85.10;;;;;;1922833;73;21287;-73
2022/08/27 09:22:56;;;;;;;3.52;1.45;;;31.70;85.40;;;;;;1940079;73;21135;-73
2022/08/27 09:25:30;;;;;;;2.70;1.45;;;31.60;85.70;;;;;;1936254;73;21144;-73
2022/08/27 09:28:04;;;;;;;6.20;3.60;;;31.60;86.20;;;;;;1930579;73;21648;-74
2022/08/27 09:30:38;;;;;;;6.72;2.90;;;31.70;86.20;;;;;;1937045;72;21176;-74
2022/08/27 09:33:09;;;;;;;3.35;2.27;;;31.60;90.20;;;;;;1926967;72;21731;-73
2022/08/27 09:35:43;;;;;;;4.33;2.30;;;31.60;90.90;;;;;;1924063;73;21120;-74
2022/08/27 09:38:16;;;;;;;5.42;2.40;;;31.60;91.20;;;;;;1933573;72;21085;-75
2022/08/27 09:40:51;;;;;;;3.52;1.72;;;31.60;91.40;;;;;;1928388;73;21583;-74
2022/08/27 09:43:22;;;;;;;4.80;2.17;;;31.60;91.40;;;;;;1947529;72;21083;-75
2022/08/27 09:45:56;;;;;;;3.95;1.70;;;31.40;91.30;;;;;;1955287;73;21060;-73
2022/08/27 09:48:29;;;;;;;2.67;1.85;;;31.40;91.50;;;;;;1960781;72;21065;-73
2022/08/27 09:51:03;;;;;;;4.92;2.05;;;31.40;91.70;;;;;;1938141;73;21670;-75
2022/08/27 09:53:35;;;;;;;3.00;1.80;;;31.30;91.80;;;;;;1939110;73;21140;-73
2022/08/27 09:56:09;;;;;;;6.83;2.02;;;31.20;91.80;;;;;;1951068;73;21552;-73
2022/08/27 09:58:43;;;;;;;4.85;2.30;;;31.10;92.10;;;;;;1951421;73;21121;-74
2022/08/27 10:01:16;;;;;;;3.58;1.92;;;31.10;92.40;;;;;;1932777;73;21102;-74
2022/08/27 10:03:48;;;;;;;4.67;2.62;;;31.00;92.70;;;;;;1946452;72;21125;-74
2022/08/27 10:06:21;;;;;;;3.47;2.35;;;30.90;92.80;;;;;;1957319;72;21186;-74
2022/08/27 10:08:55;;;;;;;4.10;2.08;;;30.90;92.80;;;;;;1923276;73;21207;-73
2022/08/27 10:11:28;;;;;;;2.92;1.92;;;30.90;92.90;;;;;;1946015;72;21141;-73
2022/08/27 10:14:01;;;;;;;3.85;1.90;;;30.80;92.70;;;;;;1937278;73;21125;-73
2022/08/27 10:16:35;;;;;;;3.10;1.67;;;30.80;92.80;;;;;;1930656;72;21232;-74
2022/08/27 10:19:08;;;;;;;5.08;1.98;;;30.70;92.60;;;;;;1930945;73;21089;-73
2022/08/27 10:21:41;;;;;;;4.12;2.02;;;30.80;92.80;;;;;;1937680;73;21123;-73
2022/08/27 10:24:15;;;;;;;2.65;1.72;;;30.80;92.00;;;;;;1937982;73;21163;-73
2022/08/27 10:26:48;;;;;;;4.00;1.45;;;30.80;91.60;;;;;;1834145;77;21182;-73
2022/08/27 10:29:22;;;;;;;2.60;1.42;;;30.80;91.40;;;;;;1875739;76;21667;-73
2022/08/27 10:31:55;;;;;;;3.77;1.55;;;30.80;91.00;;;;;;1851196;75;21693;-73
2022/08/27 10:34:29;;;;;;;2.75;1.50;;;30.80;90.60;;;;;;1895878;75;21107;-74
2022/08/27 10:37:03;;;;;;;4.45;1.82;;;30.80;91.10;;;;;;1865367;76;21212;-73
2022/08/27 10:39:39;;;;;;;3.42;2.00;;;30.80;91.80;;;;;;1878077;74;21163;-74
2022/08/27 10:42:10;;;;;;;3.65;2.10;;;30.80;92.40;;;;;;1939614;73;21563;-73
2022/08/27 10:44:42;;;;;;;5.40;2.33;;;30.80;92.80;;;;;;1939006;73;21090;-74
2022/08/27 10:47:15;;;;;;;3.87;1.85;;;30.70;92.80;;;;;;1920164;73;21626;-74
2022/08/27 10:49:48;;;;;;;5.67;2.25;;;30.70;92.60;;;;;;1933125;73;21766;-73
2022/08/27 10:52:22;;;;;;;3.72;2.45;;;30.70;92.90;;;;;;1938731;72;21603;-73
2022/08/27 10:54:56;;;;;;;4.50;2.20;;;30.70;93.30;;;;;;1928440;73;21584;-75
2022/08/27 10:57:28;;;;;;;5.10;2.50;;;30.70;93.50;;;;;;1929282;73;21569;-74
2022/08/27 11:00:01;;;;;;;5.50;2.90;;;30.60;93.70;;;;;;1925898;73;21216;-74
2022/08/27 11:02:39;;;;;;;5.42;2.60;;;30.70;94.40;;;;;;1955297;72;21111;-84
2022/08/27 11:05:09;;;;;;;6.83;3.60;;;30.60;94.50;;;;;;1954730;72;21196;-82
2022/08/27 11:07:43;;;;;;;8.30;3.20;;;30.60;94.80;;;;;;1943334;74;21148;-83
2022/08/27 11:10:17;;;;;;;7.83;3.95;;;30.60;94.40;;;;;;1945109;73;21119;-83
2022/08/27 11:12:52;;;;;;;5.08;3.05;;;30.50;94.80;;;;;;1943829;72;21066;-83
2022/08/27 11:15:25;;;;;;;4.37;2.98;;;30.40;95.10;;;;;;1899204;75;21193;-82
2022/08/27 11:17:58;;;;;;;4.80;3.15;;;30.40;95.10;;;;;;1897480;75;21197;-84
2022/08/27 11:20:34;;;;;;;4.75;3.30;;;30.40;94.90;;;;;;1903987;74;21407;-84
2022/08/27 11:23:08;;;;;;;7.70;5.40;;;30.30;95.00;;;;;;1916769;74;21134;-83
2022/08/27 11:25:49;;;;;;;5.85;3.40;;;30.30;95.10;;;;;;1904398;74;21143;-84
2022/08/27 11:28:16;;;;;;;5.60;3.00;;;30.20;95.10;;;;;;1862697;75;21147;-83
2022/08/27 11:30:50;;;;;;;5.70;3.00;;;30.20;95.50;;;;;;1874327;74;21123;-84
2022/08/27 11:33:24;;;;;;;5.20;3.50;;;30.20;95.00;;;;;;1885215;75;21126;-82
2022/08/27 11:35:59;;;;;;;6.03;2.77;;;30.20;95.00;;;;;;1893703;74;21577;-82
2022/08/27 11:38:37;;;;;;;5.08;2.70;;;30.10;95.00;;;;;;1893435;75;21102;-83
2022/08/27 11:41:14;;;;;;;4.80;2.42;;;30.10;95.00;;;;;;1876006;76;21605;-84
2022/08/27 11:43:55;;;;;;;4.83;2.75;;;30.10;94.80;;;;;;1874533;76;21139;-83
2022/08/27 11:46:30;;;;;;;5.42;3.05;;;30.10;94.90;;;;;;1913871;74;21528;-83
2022/08/27 11:49:03;;;;;;;6.78;2.80;;;30.00;94.70;;;;;;1893333;74;21145;-82
2022/08/27 11:51:47;;;;;;;6.72;3.65;;;30.00;94.70;;;;;;1857733;75;21105;-83
2022/08/27 11:54:21;;;;;;;5.83;3.70;;;30.00;95.10;;;;;;1835032;77;21609;-83
2022/08/27 11:56:51;;;;;;;6.87;3.35;;;30.00;94.60;;;;;;1859613;75;21216;-83
2022/08/27 11:59:22;;;;;;;11.78;4.40;;;30.00;94.70;;;;;;1852991;75;21217;-82
2022/08/27 12:01:55;;;;;;;8.55;3.83;;;30.00;94.80;;;;;;1858342;76;21213;-82
2022/08/27 12:04:49;;;;;;;5.37;2.85;;;29.90;94.80;;;;;;1886485;75;21863;-84
2022/08/27 12:07:30;;;;;;;6.17;3.50;;;29.90;94.80;;;;;;1873447;76;21120;-83
2022/08/27 12:10:02;;;;;;;6.47;3.27;;;29.90;94.90;;;;;;1885867;75;21166;-83
2022/08/27 12:12:36;;;;;;;6.22;3.35;;;29.90;95.00;;;;;;1901492;75;21097;-83
2022/08/27 12:15:08;;;;;;;7.30;3.12;;;29.90;95.20;;;;;;1880949;75;21197;-86
2022/08/27 12:17:41;;;;;;;6.17;3.40;;;29.90;94.90;;;;;;1849107;77;21127;-83
2022/08/27 12:20:14;;;;;;;6.75;3.30;;;29.90;94.90;;;;;;1880737;75;21155;-84
2022/08/27 12:25:28;;;;;;;6.45;3.70;;;29.90;95.00;;;;;;1881070;75;21151;-84
2022/08/27 12:28:04;;;;;;;8.70;4.55;;;29.90;95.10;;;;;;1860849;76;21154;-84
2022/08/27 12:30:36;;;;;;;8.15;4.87;;;29.90;95.20;;;;;;1850557;77;21091;-83
2022/08/27 12:33:10;;;;;;;8.20;4.40;;;29.90;95.20;;;;;;1850545;76;21335;-84
2022/08/27 12:35:43;;;;;;;8.10;4.28;;;29.90;95.60;;;;;;1833711;76;21217;-84
2022/08/27 12:38:16;;;;;;;6.92;3.70;;;29.80;95.30;;;;;;1869694;76;21195;-84
2022/08/27 12:51:33;;;;;;;8.28;4.40;;;29.80;95.50;;;;;;1883562;71;21149;-84
2022/08/27 13:10:32;;;;;;;8.53;5.00;;;29.70;95.80;;;;;;1935720;71;21084;-88
2022/08/27 13:13:16;;;;;;;8.23;4.37;;;29.70;95.80;;;;;;1926624;73;21128;-88
2022/08/27 13:15:50;;;;;;;7.15;4.50;;;29.70;96.00;;;;;;1944031;74;21131;-90
2022/08/27 13:18:31;;;;;;;10.60;5.20;;;29.60;96.40;;;;;;1943583;73;21551;-89
2022/08/27 13:21:05;;;;;;;8.88;4.25;;;29.60;96.00;;;;;;1889067;75;21752;-89
2022/08/27 13:23:36;;;;;;;6.45;3.72;;;29.60;96.00;;;;;;1887384;76;21116;-90
2022/08/27 13:28:55;;;;;;;9.13;4.20;;;29.60;96.10;;;;;;1932513;73;21127;-88
2022/08/27 13:31:30;;;;;;;6.57;4.13;;;29.60;96.20;;;;;;1940052;73;21558;-88
2022/08/27 13:34:05;;;;;;;9.98;4.33;;;29.50;96.10;;;;;;1924317;74;21088;-87
2022/08/27 13:36:39;;;;;;;7.83;4.35;;;29.50;96.20;;;;;;1926919;73;21151;-89
2022/08/27 13:39:10;;;;;;;7.45;4.12;;;29.50;96.30;;;;;;1902683;74;21142;-89
2022/08/27 13:41:45;;;;;;;6.87;4.30;;;29.50;96.30;;;;;;1887553;74;21139;-88
2022/08/27 13:44:23;;;;;;;5.50;3.52;;;29.50;96.40;;;;;;1926263;73;21435;-88
2022/08/27 13:47:00;;;;;;;8.00;4.12;;;29.50;96.40;;;;;;1925850;73;21163;-89
2022/08/27 13:49:31;;;;;;;;;;;29.50;96.40;;;;;;1910961;74;21130;-88
2022/08/27 13:52:05;;;;;;;10.60;4.15;;;29.50;96.30;;;;;;1888513;74;20249;-89
2022/08/27 13:54:38;;;;;;;8.15;3.85;;;29.40;96.50;;;;;;1902362;73;21189;-89